Time;durP1;ratioP1;P1;durP2;ratioP2;P2;SDS_P1;SDS_P2;PMS_P1;PMS_P2;Temp;Humidity;BMP_temperature;BMP_pressure;BME280_temperature;BME280_humidity;BME280_pressure;Samples;Min_cycle;Max_cycle;Signal;HPM_P1;HPM_P2
2021/04/07 00:01:39;;;;;;;1.63;1.10;;;;;;;3.44;72.21;101290.38;5032119;28;20468;-87
2021/04/07 00:04:05;;;;;;;1.70;1.10;;;;;;;3.40;72.46;101301.75;5031749;28;20056;-87
2021/04/07 00:06:34;;;;;;;3.80;1.20;;;;;;;3.24;73.15;101297.78;5031810;28;20029;-87
2021/04/07 00:09:00;;;;;;;1.90;1.23;;;;;;;3.37;72.79;101299.22;5031931;28;20025;-87
2021/04/07 00:11:25;;;;;;;2.97;1.40;;;;;;;3.51;72.05;101298.88;5031899;28;20026;-87
2021/04/07 00:13:51;;;;;;;5.00;1.63;;;;;;;3.52;71.93;101283.25;5031682;28;20030;-87
2021/04/07 00:16:16;;;;;;;2.35;1.40;;;;;;;3.58;71.43;101290.91;5031948;28;20035;-87
2021/04/07 00:18:41;;;;;;;5.15;1.60;;;;;;;3.60;71.52;101309.03;5031592;28;20550;-87
2021/04/07 00:21:07;;;;;;;2.33;1.40;;;;;;;3.57;70.94;101298.72;5030435;28;20024;-87
2021/04/07 00:23:32;;;;;;;3.65;1.00;;;;;;;3.43;71.13;101309.44;5031490;28;20146;-87
2021/04/07 00:25:57;;;;;;;1.30;1.20;;;;;;;3.49;71.24;101306.69;5031488;28;20028;-87
2021/04/07 00:28:23;;;;;;;1.70;1.48;;;;;;;3.49;72.29;101305.84;5031408;28;20025;-87
2021/04/07 00:30:49;;;;;;;1.40;1.30;;;;;;;3.23;73.79;101309.06;5031638;28;20156;-87
2021/04/07 00:33:16;;;;;;;4.28;1.65;;;;;;;3.39;74.25;101294.81;5031512;28;20036;-87
2021/04/07 00:35:42;;;;;;;3.13;1.55;;;;;;;3.51;73.92;101297.13;5031629;28;20026;-87
2021/04/07 00:38:08;;;;;;;5.25;1.40;;;;;;;3.57;72.39;101299.59;5032470;28;20025;-87
2021/04/07 00:40:34;;;;;;;2.15;1.27;;;;;;;3.66;71.74;101298.50;5031118;28;20436;-87
2021/04/07 00:43:01;;;;;;;2.80;1.70;;;;;;;3.97;71.74;101297.72;5031933;28;20029;-87
2021/04/07 00:45:27;;;;;;;5.25;1.58;;;;;;;4.16;71.06;101298.06;5031334;28;20033;-87
2021/04/07 00:47:54;;;;;;;4.72;1.48;;;;;;;4.25;71.27;101303.03;5031760;28;20022;-87
2021/04/07 00:50:22;;;;;;;7.55;1.50;;;;;;;4.37;71.26;101312.25;5030304;28;20495;-87
2021/04/07 00:52:48;;;;;;;2.50;1.05;;;;;;;4.08;71.57;101318.22;5031475;28;20025;-87
2021/04/07 00:55:15;;;;;;;2.10;1.08;;;;;;;4.12;71.77;101312.91;5031681;28;20042;-87
2021/04/07 00:57:41;;;;;;;4.70;1.40;;;;;;;4.19;72.41;101313.59;5031449;28;20553;-87
2021/04/07 01:00:08;;;;;;;4.55;1.27;;;;;;;4.22;71.21;101308.31;5031360;28;20025;-87
2021/04/07 01:02:34;;;;;;;1.27;0.98;;;;;;;4.16;72.61;101305.88;5034777;28;20495;-87
2021/04/07 01:05:00;;;;;;;5.82;1.70;;;;;;;4.15;72.40;101309.38;5034019;28;20033;-87
2021/04/07 01:07:26;;;;;;;2.45;1.23;;;;;;;4.24;71.97;101314.31;5033846;28;20029;-87
2021/04/07 01:09:51;;;;;;;2.00;1.20;;;;;;;4.32;70.71;101314.94;5033987;28;20364;-87
2021/04/07 01:12:17;;;;;;;2.55;1.23;;;;;;;4.31;70.83;101308.06;5034134;28;20032;-87
2021/04/07 01:14:42;;;;;;;2.33;0.98;;;;;;;4.12;70.41;101309.44;5034964;28;20379;-87
2021/04/07 01:17:09;;;;;;;1.85;1.05;;;;;;;4.17;71.28;101305.00;5035169;28;20040;-87
2021/04/07 01:19:35;;;;;;;2.47;1.00;;;;;;;4.17;70.54;101295.44;5033775;28;20025;-87
2021/04/07 01:22:01;;;;;;;2.15;1.17;;;;;;;4.04;70.44;101298.41;5033496;28;20104;-87
2021/04/07 01:24:27;;;;;;;2.78;1.30;;;;;;;4.08;69.67;101295.69;5033476;28;20174;-87
2021/04/07 01:26:53;;;;;;;3.60;1.80;;;;;;;3.90;70.46;101306.56;5034728;28;20048;-87
2021/04/07 01:29:19;;;;;;;3.65;1.50;;;;;;;3.60;70.81;101303.00;5034963;28;20445;-87
2021/04/07 01:31:52;;;;;;;2.15;1.00;;;;;;;3.81;70.54;101301.59;5033522;28;20488;-87
2021/04/07 01:34:41;;;;;;;3.42;1.10;;;;;;;3.57;69.59;101299.59;5033445;28;20441;-87
2021/04/07 01:37:07;;;;;;;5.30;1.30;;;;;;;3.50;70.95;101298.03;5033211;28;20028;-87
2021/04/07 01:39:32;;;;;;;4.03;1.52;;;;;;;3.45;70.62;101289.47;5033359;28;20387;-87
2021/04/07 01:41:58;;;;;;;2.25;1.33;;;;;;;3.50;69.81;101303.22;5033681;28;20036;-87
2021/04/07 01:44:24;;;;;;;6.90;1.00;;;;;;;3.62;69.79;101298.63;5036621;28;20483;-87
2021/04/07 01:46:51;;;;;;;6.38;3.78;;;;;;;3.58;69.75;101290.91;5034586;28;20044;-87
2021/04/07 01:49:16;;;;;;;3.30;1.20;;;;;;;3.46;69.57;101296.41;5046937;28;20025;-86
2021/04/07 01:51:42;;;;;;;2.97;0.98;;;;;;;3.25;69.62;101294.31;5044065;28;20072;-86
2021/04/07 01:54:12;;;;;;;4.15;1.15;;;;;;;3.06;68.68;101301.66;5034804;28;20029;-87
2021/04/07 01:56:52;;;;;;;2.72;1.20;;;;;;;2.86;70.54;101299.50;5033201;28;20040;-87
2021/04/07 01:59:23;;;;;;;3.10;1.30;;;;;;;2.89;71.26;101299.44;5033386;28;20029;-86
2021/04/07 02:01:51;;;;;;;2.60;1.00;;;;;;;2.82;71.19;101297.84;5034692;28;20031;-87
2021/04/07 02:04:17;;;;;;;2.03;0.68;;;;;;;2.93;70.61;101301.06;5033056;28;20037;-86
2021/04/07 02:06:43;;;;;;;2.67;1.08;;;;;;;3.09;70.21;101299.00;5034062;28;20029;-86
2021/04/07 02:09:09;;;;;;;2.30;1.10;;;;;;;2.86;70.10;101289.13;5033255;28;20032;-87
2021/04/07 02:11:39;;;;;;;5.93;1.10;;;;;;;2.66;70.13;101298.16;5033126;28;20036;-87
2021/04/07 02:14:05;;;;;;;3.00;1.15;;;;;;;2.54;71.28;101306.22;5033539;28;20407;-86
2021/04/07 02:16:30;;;;;;;7.85;1.30;;;;;;;2.56;72.14;101296.66;5033101;28;20064;-86
2021/04/07 02:18:56;;;;;;;2.55;1.00;;;;;;;2.62;72.13;101301.72;5032910;28;20021;-86
2021/04/07 02:21:21;;;;;;;3.88;1.15;;;;;;;2.80;69.90;101294.44;5033905;28;20025;-87
2021/04/07 02:23:47;;;;;;;3.35;1.45;;;;;;;2.86;70.68;101283.94;5033516;28;20364;-86
2021/04/07 02:26:12;;;;;;;1.63;0.93;;;;;;;2.84;69.51;101285.72;5033932;28;20025;-87
2021/04/07 02:28:37;;;;;;;3.15;1.10;;;;;;;2.84;70.85;101288.31;5032610;28;20052;-86
2021/04/07 02:31:03;;;;;;;1.95;1.00;;;;;;;2.96;69.90;101283.72;5034287;28;20416;-86
2021/04/07 02:33:28;;;;;;;5.70;0.98;;;;;;;3.01;69.75;101290.53;5033602;28;20603;-87
2021/04/07 02:35:54;;;;;;;9.02;1.13;;;;;;;2.64;70.52;101288.72;5033414;28;20037;-87
2021/04/07 02:38:19;;;;;;;4.97;1.23;;;;;;;2.80;69.19;101289.25;5033723;28;20021;-86
2021/04/07 02:40:45;;;;;;;4.57;1.15;;;;;;;2.76;69.86;101283.28;5033644;28;20502;-87
2021/04/07 02:43:10;;;;;;;3.70;1.83;;;;;;;2.93;69.16;101290.69;5034187;28;20025;-86
2021/04/07 02:45:36;;;;;;;3.00;1.35;;;;;;;3.04;68.26;101278.34;5033312;28;20036;-86
2021/04/07 02:48:02;;;;;;;3.17;1.15;;;;;;;3.18;68.25;101286.66;5033461;28;20057;-84
2021/04/07 02:50:27;;;;;;;2.83;1.00;;;;;;;3.12;67.91;101296.31;5033001;28;20495;-84
2021/04/07 02:52:52;;;;;;;2.88;1.10;;;;;;;2.90;67.96;101286.44;5033462;28;20047;-87
2021/04/07 02:55:18;;;;;;;2.65;1.27;;;;;;;3.10;68.72;101287.72;5033391;28;20032;-86
2021/04/07 02:57:44;;;;;;;3.78;1.20;;;;;;;3.17;68.52;101282.34;5033421;28;20474;-86
2021/04/07 03:00:10;;;;;;;2.78;1.00;;;;;;;3.21;67.60;101285.72;5033289;28;20025;-84
2021/04/07 03:02:35;;;;;;;4.10;1.20;;;;;;;3.18;67.37;101286.66;5033027;28;20168;-86
2021/04/07 03:05:01;;;;;;;3.72;1.40;;;;;;;3.31;67.42;101296.75;5032368;28;20112;-86
2021/04/07 03:07:26;;;;;;;3.53;1.20;;;;;;;3.24;67.14;101284.81;5032879;28;20115;-86
2021/04/07 03:09:52;;;;;;;4.13;1.50;;;;;;;2.93;69.02;101295.88;5034054;28;20029;-86
2021/04/07 03:12:18;;;;;;;2.67;1.10;;;;;;;2.81;69.80;101302.19;5032995;28;20032;-86
2021/04/07 03:14:43;;;;;;;4.57;1.10;;;;;;;3.04;68.90;101296.50;5032806;28;20112;-86
2021/04/07 03:17:10;;;;;;;2.58;1.33;;;;;;;3.21;68.87;101306.50;5031565;28;20026;-86
2021/04/07 03:19:36;;;;;;;8.57;1.65;;;;;;;3.48;67.88;101291.19;5031313;28;20037;-86
2021/04/07 03:22:02;;;;;;;11.07;1.58;;;;;;;3.56;67.98;101297.88;5031464;28;20041;-86
2021/04/07 03:24:28;;;;;;;5.80;1.55;;;;;;;3.55;67.33;101297.91;5031813;28;20038;-86
2021/04/07 03:26:53;;;;;;;2.47;1.33;;;;;;;3.60;67.31;101298.66;5032580;28;20112;-86
2021/04/07 03:29:18;;;;;;;1.85;1.15;;;;;;;3.64;66.96;101286.47;5032586;28;20034;-86
2021/04/07 03:31:43;;;;;;;3.63;1.17;;;;;;;3.72;66.85;101279.31;5032649;28;20468;-86
2021/04/07 03:34:09;;;;;;;1.52;0.98;;;;;;;3.66;65.96;101282.06;5030894;28;20423;-86
2021/04/07 03:36:34;;;;;;;2.17;0.88;;;;;;;3.61;66.79;101273.53;5032528;28;20472;-86
2021/04/07 03:38:59;;;;;;;3.63;1.10;;;;;;;3.24;66.74;101277.00;5032418;28;20026;-87
2021/04/07 03:41:25;;;;;;;5.18;1.30;;;;;;;3.08;67.32;101289.50;5032405;28;20234;-86
2021/04/07 03:43:51;;;;;;;3.03;1.38;;;;;;;2.84;68.24;101290.91;5032914;28;20104;-86
2021/04/07 03:46:17;;;;;;;4.20;1.40;;;;;;;2.81;68.66;101293.56;5032270;28;20028;-86
2021/04/07 03:48:43;;;;;;;3.78;1.20;;;;;;;3.19;67.25;101300.50;5032030;28;20029;-86
2021/04/07 03:51:08;;;;;;;5.43;1.23;;;;;;;3.30;66.25;101298.50;5032081;28;20029;-86
2021/04/07 03:53:34;;;;;;;6.07;1.80;;;;;;;3.25;66.35;101296.91;5032309;28;20029;-86
2021/04/07 03:56:00;;;;;;;4.68;1.00;;;;;;;3.34;66.00;101299.28;5032380;28;20025;-86
2021/04/07 03:58:25;;;;;;;4.57;1.10;;;;;;;3.42;66.06;101299.97;5032140;28;20408;-86
2021/04/07 04:00:51;;;;;;;1.58;1.00;;;;;;;3.26;66.02;101294.28;5032154;28;20040;-86
2021/04/07 04:03:17;;;;;;;2.45;1.17;;;;;;;3.22;66.55;101287.47;5031597;28;20360;-86
2021/04/07 04:05:42;;;;;;;3.72;1.02;;;;;;;3.32;65.88;101290.69;5031881;28;20029;-86
2021/04/07 04:08:08;;;;;;;2.58;1.10;;;;;;;3.39;65.51;101294.81;5032088;28;20026;-86
2021/04/07 04:10:34;;;;;;;6.13;1.33;;;;;;;3.43;65.64;101291.25;5031904;28;20026;-87
2021/04/07 04:13:03;;;;;;;3.38;0.90;;;;;;;3.37;65.38;101281.03;5030324;28;20033;-86
2021/04/07 04:15:29;;;;;;;4.22;1.00;;;;;;;3.24;65.14;101282.19;5030559;28;20025;-87
2021/04/07 04:17:55;;;;;;;4.53;1.00;;;;;;;2.98;66.37;101296.63;5032038;28;20055;-86
2021/04/07 04:20:20;;;;;;;3.60;1.30;;;;;;;2.91;66.13;101302.84;5031849;28;20030;-86
2021/04/07 04:22:46;;;;;;;2.17;1.10;;;;;;;2.73;67.33;101304.94;5030368;28;20025;-87
2021/04/07 04:25:15;;;;;;;11.13;1.40;;;;;;;2.86;67.88;101302.09;5030463;28;20427;-87
2021/04/07 04:27:41;;;;;;;8.82;1.13;;;;;;;3.05;66.72;101307.75;5031779;28;20375;-86
2021/04/07 04:30:08;;;;;;;5.13;1.63;;;;;;;3.12;66.22;101310.16;5031789;28;20026;-86
2021/04/07 04:32:34;;;;;;;9.23;1.30;;;;;;;3.10;65.82;101306.75;5031407;28;20044;-86
2021/04/07 04:35:00;;;;;;;6.18;1.20;;;;;;;3.15;66.42;101302.28;5031481;28;20021;-86
2021/04/07 04:37:25;;;;;;;2.10;1.10;;;;;;;3.21;65.34;101311.69;5030143;28;20017;-86
2021/04/07 04:39:51;;;;;;;5.45;0.95;;;;;;;3.12;66.37;101302.38;5031604;28;20097;-87
2021/04/07 04:42:16;;;;;;;3.42;1.33;;;;;;;3.20;66.14;101293.56;5031710;28;20053;-86
2021/04/07 04:44:41;;;;;;;3.72;1.10;;;;;;;3.28;66.09;101302.00;5032092;28;20026;-86
2021/04/07 04:47:07;;;;;;;5.00;1.10;;;;;;;3.28;65.86;101300.28;5030059;28;20029;-87
2021/04/07 04:49:32;;;;;;;3.83;0.95;;;;;;;3.30;65.89;101302.84;5031541;28;20415;-86
2021/04/07 04:51:57;;;;;;;7.50;1.20;;;;;;;3.02;65.11;101294.81;5031562;28;20498;-86
2021/04/07 04:54:23;;;;;;;2.88;0.93;;;;;;;2.81;66.11;101306.53;5031520;28;20033;-86
2021/04/07 04:56:48;;;;;;;4.78;1.20;;;;;;;2.91;67.09;101302.84;5031489;28;20060;-85
2021/04/07 04:59:14;;;;;;;5.72;1.00;;;;;;;2.99;66.66;101308.72;5031480;28;20053;-85
2021/04/07 05:01:39;;;;;;;2.25;0.93;;;;;;;2.86;66.43;101299.50;5031177;28;20027;-85
2021/04/07 05:04:05;;;;;;;4.00;1.10;;;;;;;2.92;66.83;101300.25;5031180;28;20026;-85
2021/04/07 05:06:35;;;;;;;3.95;1.10;;;;;;;3.05;67.25;101312.94;5031541;28;20479;-85
2021/04/07 05:09:03;;;;;;;3.47;1.45;;;;;;;3.03;67.97;101302.56;5031387;28;20030;-85
2021/04/07 05:11:28;;;;;;;6.82;1.42;;;;;;;3.14;67.82;101316.19;5029776;28;20022;-85
2021/04/07 05:13:53;;;;;;;3.40;1.27;;;;;;;3.40;66.59;101317.31;5031037;28;20072;-85
2021/04/07 05:16:19;;;;;;;2.17;1.08;;;;;;;3.48;66.46;101320.59;5031085;28;20079;-85
2021/04/07 05:18:44;;;;;;;9.15;1.70;;;;;;;3.61;67.33;101313.34;5031061;28;20032;-85
2021/04/07 05:21:10;;;;;;;4.70;1.67;;;;;;;3.61;66.81;101326.31;5031220;28;20472;-85
2021/04/07 05:23:36;;;;;;;3.17;1.40;;;;;;;3.60;65.94;101328.97;5043222;28;20029;-84
2021/04/07 05:26:01;;;;;;;5.53;1.45;;;;;;;3.65;67.37;101319.31;5042154;28;20093;-85
2021/04/07 05:28:26;;;;;;;7.30;1.48;;;;;;;3.75;67.55;101318.19;5032523;28;20057;-85
2021/04/07 05:31:04;;;;;;;9.10;1.60;;;;;;;3.66;67.02;101321.03;5031118;28;20056;-85
2021/04/07 05:33:32;;;;;;;6.10;1.27;;;;;;;3.68;67.40;101330.47;5011168;28;20022;-85
2021/04/07 05:36:00;;;;;;;5.63;1.75;;;;;;;3.78;67.19;101325.91;5011220;28;20037;-85
2021/04/07 05:38:26;;;;;;;2.53;1.33;;;;;;;3.96;67.64;101328.03;5026598;28;20018;-85
2021/04/07 05:40:52;;;;;;;2.25;1.17;;;;;;;4.04;66.88;101327.84;5012313;28;20030;-85
2021/04/07 05:43:18;;;;;;;4.63;1.30;;;;;;;3.95;67.27;101328.94;5026872;28;20116;-85
2021/04/07 05:45:44;;;;;;;7.63;1.50;;;;;;;3.88;67.11;101335.19;5027190;28;20124;-85
2021/04/07 05:48:10;;;;;;;8.45;1.60;;;;;;;3.84;68.00;101343.94;5032139;28;20111;-85
2021/04/07 05:50:37;;;;;;;4.97;1.83;;;;;;;3.93;67.65;101345.44;5034432;28;20017;-85
2021/04/07 05:53:03;;;;;;;3.53;1.50;;;;;;;4.07;66.29;101343.38;5034289;28;20025;-85
2021/04/07 05:55:28;;;;;;;5.32;1.13;;;;;;;4.25;66.68;101352.44;5034346;28;20025;-85
2021/04/07 05:58:01;;;;;;;2.03;1.25;;;;;;;4.35;66.28;101346.09;5034256;28;20029;-85
2021/04/07 06:00:27;;;;;;;7.05;1.90;;;;;;;4.31;65.68;101349.66;5032821;28;20033;-85
2021/04/07 06:02:57;;;;;;;1.65;1.17;;;;;;;4.40;64.86;101353.75;5032907;28;20480;-86
2021/04/07 06:05:23;;;;;;;3.00;1.20;;;;;;;4.46;65.01;101358.78;5032829;28;20057;-84
2021/04/07 06:07:53;;;;;;;6.72;1.98;;;;;;;4.42;64.57;101357.16;5034183;28;20095;-85
2021/04/07 06:10:18;;;;;;;5.28;1.52;;;;;;;4.44;64.99;101360.56;5032747;28;20480;-85
2021/04/07 06:12:44;;;;;;;9.05;2.33;;;;;;;4.61;63.78;101361.88;5034092;28;20068;-85
2021/04/07 06:15:10;;;;;;;5.03;1.50;;;;;;;4.70;63.24;101365.06;5033765;28;20108;-85
2021/04/07 06:17:37;;;;;;;7.68;1.95;;;;;;;4.71;62.72;101363.31;5013211;28;20084;-85
2021/04/07 06:20:06;;;;;;;4.85;1.85;;;;;;;4.70;63.34;101357.28;5014175;28;20026;-87
2021/04/07 06:22:31;;;;;;;4.90;1.70;;;;;;;4.79;63.40;101357.91;5014023;28;20030;-85
2021/04/07 06:24:57;;;;;;;4.70;1.50;;;;;;;4.88;62.42;101361.09;5012535;28;20026;-85
2021/04/07 06:27:22;;;;;;;3.85;1.25;;;;;;;4.82;63.06;101360.41;5012680;28;20077;-85
2021/04/07 06:29:47;;;;;;;7.20;1.60;;;;;;;4.88;63.80;101368.91;5014254;28;20026;-85
2021/04/07 06:32:13;;;;;;;8.02;1.80;;;;;;;4.94;64.13;101368.72;5032839;28;20030;-85
2021/04/07 06:34:38;;;;;;;5.30;1.90;;;;;;;4.97;64.29;101376.41;5033390;28;20080;-86
2021/04/07 06:37:03;;;;;;;3.83;1.45;;;;;;;4.83;64.55;101372.53;5033655;28;20033;-86
2021/04/07 06:39:29;;;;;;;4.47;1.40;;;;;;;4.71;65.55;101374.56;5033633;28;20025;-85
2021/04/07 06:41:54;;;;;;;5.95;1.27;;;;;;;4.94;63.92;101368.72;5033575;28;20456;-86
2021/04/07 06:44:20;;;;;;;5.70;1.30;;;;;;;5.12;63.97;101374.28;5033900;28;20432;-86
2021/04/07 06:46:46;;;;;;;2.53;1.60;;;;;;;5.16;63.67;101383.72;5033156;28;20057;-86
2021/04/07 06:49:12;;;;;;;4.47;1.63;;;;;;;5.03;63.72;101380.59;5032244;28;20029;-86
2021/04/07 06:51:40;;;;;;;5.40;1.45;;;;;;;4.99;62.94;101378.97;5033376;28;20021;-85
2021/04/07 06:54:06;;;;;;;8.18;1.50;;;;;;;5.23;64.27;101381.75;5033268;28;20029;-85
2021/04/07 06:56:33;;;;;;;3.95;1.77;;;;;;;5.37;63.04;101384.78;5033308;28;20495;-85
2021/04/07 06:58:58;;;;;;;4.70;1.48;;;;;;;5.45;63.10;101393.25;5033088;28;20029;-85
2021/04/07 07:01:24;;;;;;;3.00;1.50;;;;;;;5.41;62.86;101391.66;5032694;28;20030;-85
2021/04/07 07:03:49;;;;;;;6.07;1.65;;;;;;;5.54;63.64;101392.09;5032948;28;20022;-85
2021/04/07 07:06:15;;;;;;;2.90;1.58;;;;;;;5.76;61.83;101393.09;5032960;28;20055;-86
2021/04/07 07:08:40;;;;;;;5.60;2.00;;;;;;;5.68;60.57;101396.88;5034072;28;20029;-86
2021/04/07 07:11:14;;;;;;;3.20;1.90;;;;;;;5.61;61.04;101397.97;5032874;28;20033;-86
2021/04/07 07:13:40;;;;;;;6.40;1.30;;;;;;;5.70;61.40;101385.50;5031582;28;20101;-86
2021/04/07 07:16:05;;;;;;;3.42;1.27;;;;;;;5.87;61.94;101390.19;5032563;28;20038;-85
2021/04/07 07:18:31;;;;;;;5.85;1.40;;;;;;;6.04;61.34;101396.63;5032748;28;20021;-86
2021/04/07 07:20:57;;;;;;;4.40;1.23;;;;;;;6.23;61.25;101405.53;5032888;28;20056;-86
2021/04/07 07:23:27;;;;;;;4.50;1.13;;;;;;;6.39;61.03;101408.47;5031281;28;20025;-86
2021/04/07 07:25:56;;;;;;;6.85;2.40;;;;;;;6.40;61.59;101404.97;5031462;28;20106;-86
2021/04/07 07:28:23;;;;;;;4.80;1.95;;;;;;;6.48;61.69;101407.31;5030291;28;20034;-86
2021/04/07 07:30:48;;;;;;;9.73;1.65;;;;;;;6.50;61.36;101405.50;5028490;28;20353;-86
2021/04/07 07:33:16;;;;;;;12.50;2.55;;;;;;;6.65;61.73;101407.53;5022480;28;20120;-86
2021/04/07 07:35:43;;;;;;;7.88;1.40;;;;;;;6.78;61.16;101404.53;5028703;28;20083;-87
2021/04/07 07:38:08;;;;;;;5.03;1.15;;;;;;;6.79;61.40;101414.03;5032325;28;20026;-88
2021/04/07 07:40:34;;;;;;;6.00;1.83;;;;;;;6.85;60.12;101411.19;5014161;28;20080;-87
2021/04/07 07:43:00;;;;;;;6.47;2.15;;;;;;;6.95;59.81;101415.19;5021793;28;20447;-87
2021/04/07 07:45:39;;;;;;;5.93;2.03;;;;;;;7.10;59.45;101416.38;5032202;28;20034;-87
2021/04/07 07:48:13;;;;;;;9.70;4.18;;;;;;;6.82;59.91;101420.00;5031396;28;20418;-87
2021/04/07 07:50:47;;;;;;;9.68;4.25;;;;;;;7.06;59.16;101415.63;5030994;28;20022;-87
2021/04/07 07:53:23;;;;;;;10.75;4.63;;;;;;;7.06;59.46;101423.47;5030519;28;20029;-87
2021/04/07 07:55:51;;;;;;;11.13;3.72;;;;;;;6.99;59.49;101414.19;5012193;28;20044;-87
2021/04/07 07:58:16;;;;;;;9.45;2.92;;;;;;;7.12;59.12;101423.25;5011046;28;20495;-87
2021/04/07 08:00:42;;;;;;;8.73;2.80;;;;;;;6.99;57.78;101421.13;5016002;28;20033;-87
2021/04/07 08:03:08;;;;;;;9.27;2.83;;;;;;;7.01;58.88;101422.81;5029806;28;20029;-87
2021/04/07 08:05:35;;;;;;;4.25;1.98;;;;;;;7.13;58.19;101416.28;5031763;28;20030;-87
2021/04/07 08:08:03;;;;;;;7.47;2.33;;;;;;;7.35;57.29;101411.09;5031903;28;20096;-87
2021/04/07 08:10:28;;;;;;;11.05;3.47;;;;;;;7.49;56.17;101421.84;5031383;28;20017;-87
2021/04/07 08:12:56;;;;;;;8.60;2.42;;;;;;;7.69;55.53;101422.84;5030424;28;20044;-87
2021/04/07 08:15:22;;;;;;;9.20;2.38;;;;;;;7.86;56.48;101427.38;5030420;28;20070;-87
2021/04/07 08:17:47;;;;;;;10.48;2.60;;;;;;;7.79;56.47;101424.16;5031273;28;20021;-87
2021/04/07 08:20:12;;;;;;;5.88;2.60;;;;;;;7.92;55.90;101424.53;5031081;28;20065;-87
2021/04/07 08:22:39;;;;;;;6.72;2.42;;;;;;;7.95;55.85;101422.63;5031001;28;20392;-88
2021/04/07 08:25:06;;;;;;;9.68;2.88;;;;;;;8.11;54.87;101417.63;5031402;28;20495;-88
2021/04/07 08:27:35;;;;;;;11.25;2.97;;;;;;;8.28;54.71;101421.31;5031232;28;20038;-88
2021/04/07 08:30:05;;;;;;;9.20;3.22;;;;;;;8.27;55.48;101424.84;5011905;28;20018;-88
2021/04/07 08:32:30;;;;;;;5.18;2.50;;;;;;;8.52;55.15;101422.06;5017322;28;20028;-89
2021/04/07 08:34:56;;;;;;;12.35;3.35;;;;;;;8.70;54.28;101423.03;5030060;28;20026;-88
2021/04/07 08:37:26;;;;;;;7.65;3.17;;;;;;;8.77;54.22;101426.22;5032551;28;20267;-88
2021/04/07 08:39:51;;;;;;;13.43;3.10;;;;;;;8.81;54.78;101422.56;5038270;28;20033;-88
2021/04/07 08:42:17;;;;;;;9.95;2.80;;;;;;;8.89;54.21;101421.31;5037655;28;20024;-88
2021/04/07 08:44:45;;;;;;;5.85;2.33;;;;;;;9.15;53.21;101439.41;5043010;23;20045;-88
2021/04/07 08:47:29;;;;;;;9.15;2.10;;;;;;;9.43;52.83;101426.69;5029293;28;20029;-87
2021/04/07 08:50:07;;;;;;;6.50;2.13;;;;;;;9.45;50.86;101430.09;5018706;28;20076;-87
2021/04/07 08:52:44;;;;;;;6.32;1.70;;;;;;;9.65;50.94;101423.91;5029496;28;20025;-87
2021/04/07 08:55:23;;;;;;;6.05;1.92;;;;;;;9.87;49.09;101422.88;5029833;28;20088;-87
2021/04/07 08:58:05;;;;;;;8.10;2.00;;;;;;;10.16;49.00;101428.47;5023355;28;20033;-87
2021/04/07 09:00:36;;;;;;;9.20;1.55;;;;;;;10.34;49.47;101422.31;5035985;28;20018;-88
2021/04/07 09:03:14;;;;;;;7.28;1.95;;;;;;;9.93;49.41;101436.56;5030536;28;20050;-87
2021/04/07 09:05:44;;;;;;;12.75;2.33;;;;;;;9.86;49.41;101429.06;5005637;28;20034;-87
2021/04/07 09:08:15;;;;;;;7.15;1.90;;;;;;;10.28;47.97;101426.06;4992209;28;20081;-87
2021/04/07 09:10:46;;;;;;;7.05;1.58;;;;;;;10.52;47.48;101431.03;4992831;28;20072;-87
2021/04/07 09:13:14;;;;;;;5.13;1.60;;;;;;;10.66;47.64;101422.44;5002415;28;20018;-87
2021/04/07 09:16:04;;;;;;;9.00;2.03;;;;;;;10.99;46.67;101430.31;4991548;28;20096;-88
2021/04/07 09:18:38;;;;;;;10.55;1.95;;;;;;;11.29;44.00;101424.34;4991326;28;20026;-87
2021/04/07 09:21:06;;;;;;;7.43;1.30;;;;;;;11.76;41.89;101422.63;4991715;28;20372;-88
2021/04/07 09:23:34;;;;;;;4.47;1.30;;;;;;;11.63;42.85;101425.09;5008272;28;20022;-87
2021/04/07 09:26:14;;;;;;;5.38;1.30;;;;;;;11.88;40.92;101430.66;5029266;28;20029;-88
2021/04/07 09:28:42;;;;;;;7.93;1.60;;;;;;;12.08;41.75;101423.44;5013225;28;20034;-88
2021/04/07 09:31:26;;;;;;;7.20;1.42;;;;;;;12.19;40.46;101431.56;5017580;28;20021;-87
2021/04/07 09:33:56;;;;;;;6.57;1.90;;;;;;;11.73;41.11;101423.69;5011633;28;20041;-88
2021/04/07 09:36:27;;;;;;;5.50;1.60;;;;;;;11.37;41.90;101429.19;5010529;28;20378;-87
2021/04/07 09:38:54;;;;;;;11.50;1.75;;;;;;;11.49;40.84;101421.47;5010463;28;20041;-87
2021/04/07 09:41:26;;;;;;;10.90;1.30;;;;;;;11.25;40.61;101418.41;4995460;28;20106;-87
2021/04/07 09:43:52;;;;;;;5.35;1.40;;;;;;;11.54;40.12;101418.59;5021372;28;20022;-87
2021/04/07 09:46:19;;;;;;;5.00;0.93;;;;;;;11.28;39.04;101415.63;5011365;28;20038;-86
2021/04/07 09:48:50;;;;;;;5.50;0.88;;;;;;;12.05;34.79;101410.47;4995963;28;20117;-86
2021/04/07 09:51:21;;;;;;;2.33;0.63;;;;;;;12.77;36.34;101410.59;4995731;28;20054;-86
2021/04/07 09:53:47;;;;;;;4.00;0.63;;;;;;;11.83;35.38;101409.06;4994943;28;20031;-85
2021/04/07 09:56:13;;;;;;;4.22;0.70;;;;;;;12.40;33.63;101407.53;4994786;28;20049;-86
2021/04/07 09:58:47;;;;;;;4.22;0.68;;;;;;;12.30;34.23;101405.47;4995143;28;20026;-86
2021/04/07 10:01:15;;;;;;;5.05;1.05;;;;;;;12.56;33.56;101408.34;5010062;28;20029;-86
2021/04/07 10:03:52;;;;;;;7.05;0.98;;;;;;;12.26;33.47;101411.88;5002286;28;20034;-85
2021/04/07 10:06:26;;;;;;;2.00;0.65;;;;;;;13.20;33.48;101400.03;5001648;28;20397;-86
2021/04/07 10:09:03;;;;;;;5.20;1.05;;;;;;;13.01;32.97;101406.47;5014444;28;20432;-86
2021/04/07 10:11:29;;;;;;;6.30;0.90;;;;;;;13.09;33.50;101398.91;5013003;28;20026;-86
2021/04/07 10:13:59;;;;;;;4.82;0.85;;;;;;;12.69;33.81;101409.25;5002852;28;20498;-85
2021/04/07 10:16:26;;;;;;;6.03;0.90;;;;;;;12.55;32.37;101409.25;5029489;28;20033;-86
2021/04/07 10:18:51;;;;;;;6.80;1.00;;;;;;;12.31;33.89;101395.78;5014268;28;20022;-88
2021/04/07 10:21:19;;;;;;;2.97;0.82;;;;;;;12.64;34.23;101403.44;5010077;28;20040;-89
2021/04/07 10:23:47;;;;;;;5.22;2.15;;;;;;;11.91;34.15;101406.00;4998915;28;20037;-89
2021/04/07 10:26:15;;;;;;;5.22;0.90;;;;;;;11.30;34.59;101416.38;5011142;28;20066;-89
2021/04/07 10:28:40;;;;;;;26.45;1.70;;;;;;;11.51;35.26;101416.97;5012838;28;20030;-88
2021/04/07 10:31:12;;;;;;;5.47;1.17;;;;;;;11.79;35.51;101418.06;5012313;28;20500;-89
2021/04/07 10:33:38;;;;;;;5.90;1.13;;;;;;;11.04;36.64;101414.34;5020134;28;20036;-88
2021/04/07 10:36:04;;;;;;;8.48;0.80;;;;;;;10.64;37.55;101419.91;5016929;28;20037;-88
2021/04/07 10:38:36;;;;;;;3.92;0.77;;;;;;;10.86;36.22;101413.50;5025091;28;20121;-89
2021/04/07 10:41:06;;;;;;;2.47;0.88;;;;;;;10.98;38.02;101415.50;5013554;28;20108;-88
2021/04/07 10:43:39;;;;;;;4.97;0.80;;;;;;;11.03;38.03;101416.09;5009461;28;20037;-88
2021/04/07 10:46:08;;;;;;;4.93;1.13;;;;;;;10.82;37.35;101419.84;5013849;28;20361;-88
2021/04/07 10:48:35;;;;;;;8.77;1.33;;;;;;;11.08;36.42;101421.97;5010137;28;20025;-88
2021/04/07 10:51:01;;;;;;;5.95;1.15;;;;;;;10.88;36.72;101415.16;5025345;28;20045;-88
2021/04/07 10:53:32;;;;;;;6.28;0.90;;;;;;;11.10;37.94;101425.34;5002238;28;20068;-88
2021/04/07 10:56:00;;;;;;;3.73;1.13;;;;;;;10.90;37.66;101415.06;5013434;28;20389;-88
2021/04/07 10:58:27;;;;;;;6.60;0.85;;;;;;;10.94;37.87;101424.47;4999922;28;20288;-88
2021/04/07 11:00:54;;;;;;;6.85;1.30;;;;;;;11.04;38.67;101428.31;5009108;28;20092;-88
2021/04/07 11:03:31;;;;;;;9.32;1.42;;;;;;;11.09;36.65;101422.81;5023967;28;20112;-88
2021/04/07 11:05:57;;;;;;;6.07;1.60;;;;;;;10.43;38.20;101428.91;5028271;28;20064;-88
2021/04/07 11:08:34;;;;;;;6.47;1.25;;;;;;;10.35;37.55;101436.28;5001059;28;20029;-88
2021/04/07 11:10:59;;;;;;;4.20;1.58;;;;;;;10.34;38.39;101426.72;5014754;28;20404;-88
2021/04/07 11:13:25;;;;;;;5.65;1.52;;;;;;;10.56;37.98;101435.19;5026790;28;20144;-88
2021/04/07 11:15:51;;;;;;;4.35;0.80;;;;;;;10.71;38.18;101434.41;5004333;28;20121;-88
2021/04/07 11:18:27;;;;;;;3.35;1.30;;;;;;;10.58;37.14;101430.72;4994466;28;20110;-89
2021/04/07 11:20:53;;;;;;;7.22;2.55;;;;;;;10.45;37.50;101441.00;4993196;28;20031;-89
2021/04/07 11:23:18;;;;;;;10.93;1.65;;;;;;;10.91;38.16;101425.47;5020052;28;20388;-89
2021/04/07 11:25:44;;;;;;;5.65;1.25;;;;;;;10.96;36.67;101430.50;5012326;28;20033;-89
2021/04/07 11:28:17;;;;;;;6.53;0.82;;;;;;;11.08;36.61;101429.84;5008232;28;20112;-90
2021/04/07 11:30:55;;;;;;;9.63;1.33;;;;;;;10.87;37.18;101433.63;5009001;28;20026;-89
2021/04/07 11:33:23;;;;;;;4.28;1.30;;;;;;;10.44;36.90;101438.47;5020575;28;20018;-90